Time;durP1;ratioP1;P1;durP2;ratioP2;P2;SDS_P1;SDS_P2;PMS_P1;PMS_P2;Temp;Humidity;BMP_temperature;BMP_pressure;BME280_temperature;BME280_humidity;BME280_pressure;Samples;Min_cycle;Max_cycle;Signal;HPM_P1;HPM_P2
2022/10/15 00:02:02;;;;;;;;;;;12.80;64.90;;;;;;5044592;28;88247;-37
2022/10/15 00:04:29;;;;;;;;;;;12.80;64.90;;;;;;5044934;28;87129;-37
2022/10/15 00:06:54;;;;;;;;;;;12.80;64.90;;;;;;5044972;27;87378;-38
2022/10/15 00:09:20;;;;;;;;;;;12.80;65.00;;;;;;5045033;28;87503;-38
2022/10/15 00:11:45;;;;;;;;;;;12.80;65.00;;;;;;5047623;28;87117;-37
2022/10/15 00:14:10;;;;;;;;;;;12.80;64.90;;;;;;5044226;28;88009;-38
2022/10/15 00:16:36;;;;;;;;;;;12.80;64.90;;;;;;5043972;28;87983;-37
2022/10/15 00:19:02;;;;;;;;;;;12.80;65.00;;;;;;5044739;27;87653;-37
2022/10/15 00:21:27;;;;;;;;;;;12.80;65.00;;;;;;5044198;28;88337;-37
2022/10/15 00:23:54;;;;;;;;;;;12.70;65.00;;;;;;5043988;28;87137;-37
2022/10/15 00:26:21;;;;;;;;;;;12.70;65.00;;;;;;5043042;28;88161;-38
2022/10/15 00:28:48;;;;;;;;;;;12.80;65.10;;;;;;5044275;28;88222;-37
2022/10/15 00:31:14;;;;;;;;;;;12.70;65.00;;;;;;5044385;28;87003;-37
2022/10/15 00:33:41;;;;;;;;;;;12.80;65.10;;;;;;5047528;28;87532;-37
2022/10/15 00:36:09;;;;;;;;;;;12.80;65.10;;;;;;5044496;28;87218;-37
2022/10/15 00:38:35;;;;;;;;;;;12.70;65.00;;;;;;5044324;27;87414;-37
2022/10/15 00:41:01;;;;;;;;;;;12.80;65.10;;;;;;5042963;28;89102;-37
2022/10/15 00:43:53;;;;;;;;;;;12.70;65.10;;;;;;5044451;28;87050;-37
2022/10/15 00:46:34;;;;;;;;;;;12.70;65.10;;;;;;5042031;28;87214;-37
2022/10/15 00:49:19;;;;;;;;;;;12.70;65.10;;;;;;5043780;28;87991;-38
2022/10/15 00:51:53;;;;;;;;;;;12.70;65.10;;;;;;5021865;28;87109;-37
2022/10/15 00:54:19;;;;;;;;;;;12.70;65.10;;;;;;5045264;28;87504;-37
2022/10/15 00:56:45;;;;;;;;;;;12.70;65.10;;;;;;5044118;28;86832;-37
2022/10/15 00:59:12;;;;;;;;;;;12.70;65.10;;;;;;5044562;27;87455;-37
2022/10/15 01:01:38;;;;;;;;;;;12.70;65.20;;;;;;5043686;28;87255;-37
2022/10/15 01:04:04;;;;;;;;;;;12.70;65.20;;;;;;5043973;28;87128;-37
2022/10/15 01:06:30;;;;;;;;;;;12.70;65.20;;;;;;5043441;28;87929;-37
2022/10/15 01:08:55;;;;;;;;;;;12.70;65.20;;;;;;5043479;28;88201;-37
2022/10/15 01:11:30;;;;;;;;;;;12.70;65.10;;;;;;5043911;28;87122;-37
2022/10/15 01:13:55;;;;;;;;;;;12.70;65.20;;;;;;5044255;28;87176;-37
2022/10/15 01:16:31;;;;;;;;;;;12.70;65.20;;;;;;5046134;28;88093;-38
2022/10/15 01:19:15;;;;;;;;;;;12.60;65.30;;;;;;5044133;27;87721;-38
2022/10/15 01:21:43;;;;;;;;;;;12.60;65.20;;;;;;5043482;27;88591;-38
2022/10/15 01:24:15;;;;;;;;;;;12.60;65.40;;;;;;5043547;28;86420;-38
2022/10/15 01:26:55;;;;;;;;;;;12.60;65.30;;;;;;5043618;28;87034;-37
2022/10/15 01:29:35;;;;;;;;;;;12.60;65.30;;;;;;5043184;28;87303;-37
2022/10/15 01:32:06;;;;;;;;;;;12.60;65.30;;;;;;5042925;28;88048;-37
2022/10/15 01:34:44;;;;;;;;;;;12.60;65.30;;;;;;5043657;28;88299;-38
2022/10/15 01:37:17;;;;;;;;;;;12.60;65.30;;;;;;5043074;28;88009;-37
2022/10/15 01:39:49;;;;;;;;;;;12.60;65.30;;;;;;5046374;28;87515;-38
2022/10/15 01:42:28;;;;;;;;;;;12.60;65.30;;;;;;5043190;28;88052;-37
2022/10/15 01:44:57;;;;;;;;;;;12.60;65.30;;;;;;5043086;28;87169;-37
2022/10/15 01:47:26;;;;;;;;;;;12.60;65.40;;;;;;5043063;27;87785;-38
2022/10/15 01:49:52;;;;;;;;;;;12.60;65.40;;;;;;5042956;28;87216;-37
2022/10/15 01:52:20;;;;;;;;;;;12.50;65.40;;;;;;5043240;28;87016;-38
2022/10/15 01:54:46;;;;;;;;;;;12.60;65.50;;;;;;5043027;28;87493;-37
2022/10/15 01:57:12;;;;;;;;;;;12.60;65.40;;;;;;5042044;28;89310;-38
2022/10/15 01:59:39;;;;;;;;;;;12.50;65.40;;;;;;5043211;28;87089;-37
2022/10/15 02:02:04;;;;;;;;;;;12.50;65.40;;;;;;5045711;27;87489;-38
2022/10/15 02:04:30;;;;;;;;;;;12.50;65.40;;;;;;5042985;28;86831;-37
2022/10/15 02:06:56;;;;;;;;;;;12.50;65.40;;;;;;5042525;27;87397;-37
2022/10/15 02:09:27;;;;;;;;;;;12.50;65.50;;;;;;5042758;28;87948;-37
2022/10/15 02:12:05;;;;;;;;;;;12.50;65.50;;;;;;5043080;28;87055;-37
2022/10/15 02:14:36;;;;;;;;;;;12.50;65.50;;;;;;5043539;28;87430;-37
2022/10/15 02:17:05;;;;;;;;;;;12.50;65.50;;;;;;5042180;28;87979;-37
2022/10/15 02:19:49;;;;;;;;;;;12.40;65.60;;;;;;5042874;28;86986;-38
2022/10/15 02:22:22;;;;;;;;;;;12.40;65.60;;;;;;5042179;27;87955;-37
2022/10/15 02:25:00;;;;;;;;;;;12.50;65.60;;;;;;5044900;28;87799;-37
2022/10/15 02:27:27;;;;;;;;;;;12.50;65.50;;;;;;5042842;27;87483;-37
2022/10/15 02:29:53;;;;;;;;;;;12.40;65.60;;;;;;5042216;28;87957;-37
2022/10/15 02:32:22;;;;;;;;;;;12.40;65.60;;;;;;5042597;28;87532;-37
2022/10/15 02:34:48;;;;;;;;;;;12.40;65.60;;;;;;5042605;27;87484;-38
2022/10/15 02:37:16;;;;;;;;;;;12.40;65.60;;;;;;5042219;28;88092;-38
2022/10/15 02:39:42;;;;;;;;;;;12.40;65.60;;;;;;5043009;28;86358;-37
2022/10/15 02:42:08;;;;;;;;;;;12.40;65.70;;;;;;5042462;27;86947;-37
2022/10/15 02:44:33;;;;;;;;;;;12.40;65.70;;;;;;5042255;28;88129;-37
2022/10/15 02:46:59;;;;;;;;;;;12.40;65.60;;;;;;5044779;28;88025;-37
2022/10/15 02:49:24;;;;;;;;;;;12.40;65.70;;;;;;5042156;28;87930;-37
2022/10/15 02:51:50;;;;;;;;;;;12.40;65.60;;;;;;5042512;28;87104;-37
2022/10/15 02:54:15;;;;;;;;;;;12.30;65.60;;;;;;5042404;28;87491;-37
2022/10/15 02:56:41;;;;;;;;;;;12.40;65.60;;;;;;5042088;28;88195;-37
2022/10/15 02:59:07;;;;;;;;;;;12.40;65.60;;;;;;5042291;28;87158;-38
2022/10/15 03:01:33;;;;;;;;;;;12.30;65.60;;;;;;5042751;27;87094;-37
2022/10/15 03:03:58;;;;;;;;;;;12.30;65.50;;;;;;5042433;28;87477;-37
2022/10/15 03:06:24;;;;;;;;;;;12.30;65.50;;;;;;5045190;28;87160;-37
2022/10/15 03:08:49;;;;;;;;;;;12.30;65.60;;;;;;5041992;28;88223;-37
2022/10/15 03:11:15;;;;;;;;;;;12.30;65.50;;;;;;5041593;28;88057;-37
2022/10/15 03:13:41;;;;;;;;;;;12.30;65.50;;;;;;5042130;27;88228;-37
2022/10/15 03:16:07;;;;;;;;;;;12.30;65.50;;;;;;5041909;28;87987;-37
2022/10/15 03:18:33;;;;;;;;;;;12.30;65.70;;;;;;5043982;27;86950;-37
2022/10/15 03:20:59;;;;;;;;;;;12.30;65.60;;;;;;5045769;28;87339;-37
2022/10/15 03:23:25;;;;;;;;;;;12.30;65.60;;;;;;5044521;28;88576;-37
2022/10/15 03:25:51;;;;;;;;;;;12.30;65.60;;;;;;5045477;28;87213;-37
2022/10/15 03:28:16;;;;;;;;;;;12.30;65.50;;;;;;5048352;27;87382;-38
2022/10/15 03:30:42;;;;;;;;;;;12.30;65.60;;;;;;5045430;28;87099;-37
2022/10/15 03:33:08;;;;;;;;;;;12.30;65.50;;;;;;5045389;27;87483;-37
2022/10/15 03:35:33;;;;;;;;;;;12.30;65.60;;;;;;5044210;28;88909;-38
2022/10/15 03:37:59;;;;;;;;;;;12.30;65.60;;;;;;5045238;28;87066;-38
2022/10/15 03:40:24;;;;;;;;;;;12.30;65.60;;;;;;5045363;27;87047;-37
2022/10/15 03:42:50;;;;;;;;;;;12.30;65.50;;;;;;5044966;28;88122;-37
2022/10/15 03:45:17;;;;;;;;;;;12.20;65.40;;;;;;5045285;28;86980;-37
2022/10/15 03:47:42;;;;;;;;;;;12.30;65.60;;;;;;5045098;28;87524;-37
2022/10/15 03:50:08;;;;;;;;;;;12.20;65.50;;;;;;5047534;28;88646;-37
2022/10/15 03:52:34;;;;;;;;;;;12.20;65.60;;;;;;5045507;28;87311;-37
2022/10/15 03:55:00;;;;;;;;;;;12.20;65.50;;;;;;5044694;28;87193;-38
2022/10/15 03:57:25;;;;;;;;;;;12.20;65.50;;;;;;5044763;28;87102;-37
2022/10/15 03:59:51;;;;;;;;;;;12.20;65.50;;;;;;5044453;28;87897;-38
2022/10/15 04:02:16;;;;;;;;;;;12.20;65.50;;;;;;5044629;28;88184;-37
2022/10/15 04:04:42;;;;;;;;;;;12.20;65.50;;;;;;5044954;28;86977;-37
2022/10/15 04:07:07;;;;;;;;;;;12.20;65.60;;;;;;5044946;28;87794;-38
2022/10/15 04:09:33;;;;;;;;;;;12.20;65.50;;;;;;5044684;28;88115;-37
2022/10/15 04:11:58;;;;;;;;;;;12.20;65.50;;;;;;5047532;28;87038;-37
2022/10/15 04:14:24;;;;;;;;;;;12.10;65.50;;;;;;5044292;28;88102;-37
2022/10/15 04:16:49;;;;;;;;;;;12.10;65.50;;;;;;5045335;28;86269;-37
2022/10/15 04:19:15;;;;;;;;;;;12.10;65.50;;;;;;5044916;28;86928;-37
2022/10/15 04:21:40;;;;;;;;;;;12.10;65.50;;;;;;5044697;28;88102;-37
2022/10/15 04:24:06;;;;;;;;;;;12.10;65.50;;;;;;5043589;28;88067;-37
2022/10/15 04:26:32;;;;;;;;;;;12.10;65.40;;;;;;5044649;28;88384;-37
2022/10/15 04:28:57;;;;;;;;;;;12.10;65.50;;;;;;5043767;27;87963;-37
2022/10/15 04:31:23;;;;;;;;;;;12.10;65.50;;;;;;5044766;28;86988;-37
2022/10/15 04:33:49;;;;;;;;;;;12.10;65.50;;;;;;5046880;28;87000;-36
2022/10/15 04:36:14;;;;;;;;;;;12.10;66.10;;;;;;5044391;28;86929;-37
2022/10/15 04:38:40;;;;;;;;;;;12.10;65.40;;;;;;5044562;27;87276;-37
2022/10/15 04:41:08;;;;;;;;;;;12.00;65.50;;;;;;5044615;28;87179;-36
2022/10/15 04:43:34;;;;;;;;;;;12.00;65.40;;;;;;5044166;28;88171;-37
2022/10/15 04:46:00;;;;;;;;;;;12.00;65.50;;;;;;5044337;28;87275;-37
2022/10/15 04:48:29;;;;;;;;;;;12.00;65.50;;;;;;5043413;28;89000;-37
2022/10/15 04:50:54;;;;;;;;;;;12.00;65.50;;;;;;5043717;28;87109;-36
2022/10/15 04:53:20;;;;;;;;;;;12.00;65.50;;;;;;5044103;28;87487;-37
2022/10/15 04:55:46;;;;;;;;;;;12.00;65.50;;;;;;5046666;28;87890;-37
2022/10/15 04:58:12;;;;;;;;;;;12.00;65.50;;;;;;5043935;28;88136;-37
2022/10/15 05:00:37;;;;;;;;;;;12.00;65.50;;;;;;5043637;28;88156;-37
2022/10/15 05:03:06;;;;;;;;;;;12.00;65.50;;;;;;5043958;28;87055;-37
2022/10/15 05:05:32;;;;;;;;;;;12.00;65.40;;;;;;5044662;27;87386;-37
2022/10/15 05:08:01;;;;;;;;;;;12.00;65.40;;;;;;5043596;28;88078;-38
2022/10/15 05:10:26;;;;;;;;;;;11.90;65.50;;;;;;5044074;28;87074;-37
2022/10/15 05:12:52;;;;;;;;;;;11.90;65.50;;;;;;5043013;27;87938;-37
2022/10/15 05:15:18;;;;;;;;;;;11.90;65.50;;;;;;5046219;28;88145;-37
2022/10/15 05:17:43;;;;;;;;;;;11.90;65.50;;;;;;5044053;28;87579;-38
2022/10/15 05:20:09;;;;;;;;;;;11.90;65.40;;;;;;5043473;28;88186;-37
2022/10/15 05:22:34;;;;;;;;;;;11.90;65.50;;;;;;5043702;28;87062;-37
2022/10/15 05:25:00;;;;;;;;;;;11.90;65.40;;;;;;5043239;28;89782;-37
2022/10/15 05:27:25;;;;;;;;;;;11.90;65.50;;;;;;5043090;28;88126;-37
2022/10/15 05:29:51;;;;;;;;;;;11.90;65.50;;;;;;5044031;28;86329;-37
2022/10/15 05:32:16;;;;;;;;;;;11.90;65.40;;;;;;5043829;28;87116;-37
2022/10/15 05:34:42;;;;;;;;;;;11.90;65.50;;;;;;5043125;28;87393;-37
2022/10/15 05:37:07;;;;;;;;;;;11.90;65.40;;;;;;5045860;28;88158;-37
2022/10/15 05:39:33;;;;;;;;;;;11.90;65.40;;;;;;5043201;28;88052;-37
2022/10/15 05:41:58;;;;;;;;;;;11.80;65.40;;;;;;5042294;27;87082;-37
2022/10/15 05:44:24;;;;;;;;;;;11.80;65.50;;;;;;5043444;28;87434;-38
2022/10/15 05:46:49;;;;;;;;;;;11.80;65.50;;;;;;5043057;28;88381;-37
2022/10/15 05:49:15;;;;;;;;;;;11.80;65.50;;;;;;5043465;28;87029;-37
2022/10/15 05:51:40;;;;;;;;;;;11.80;65.50;;;;;;5043060;28;87710;-37
2022/10/15 05:54:06;;;;;;;;;;;11.80;65.50;;;;;;5043521;28;87474;-38
2022/10/15 05:56:31;;;;;;;;;;;11.80;65.60;;;;;;5042977;28;87211;-37
2022/10/15 05:58:57;;;;;;;;;;;11.80;65.70;;;;;;5045853;28;87403;-37
2022/10/15 06:01:22;;;;;;;;;;;11.80;65.70;;;;;;5042589;28;88004;-37
2022/10/15 06:03:48;;;;;;;;;;;11.80;65.70;;;;;;5043136;28;87500;-37
2022/10/15 06:06:25;;;;;;;;;;;11.80;65.60;;;;;;5042739;28;88251;-37
2022/10/15 06:08:50;;;;;;;;;;;11.80;65.70;;;;;;5043170;28;86866;-38
2022/10/15 06:11:16;;;;;;;;;;;11.70;65.70;;;;;;5043052;27;87371;-37
2022/10/15 06:13:42;;;;;;;;;;;11.70;65.70;;;;;;5042619;28;88146;-37
2022/10/15 06:16:08;;;;;;;;;;;11.70;65.80;;;;;;5042823;28;87064;-37
2022/10/15 06:18:34;;;;;;;;;;;11.80;65.70;;;;;;5043213;27;87152;-38
2022/10/15 06:21:00;;;;;;;;;;;11.80;65.60;;;;;;5045548;28;87944;-37
2022/10/15 06:23:26;;;;;;;;;;;11.80;65.60;;;;;;5042563;27;87334;-37
2022/10/15 06:25:51;;;;;;;;;;;11.70;65.70;;;;;;5041671;28;88831;-37
2022/10/15 06:28:17;;;;;;;;;;;11.80;65.80;;;;;;5043054;28;87389;-37
2022/10/15 06:30:43;;;;;;;;;;;11.80;65.80;;;;;;5042867;27;87306;-37
2022/10/15 06:33:08;;;;;;;;;;;11.70;65.60;;;;;;5042347;28;88359;-37
2022/10/15 06:35:34;;;;;;;;;;;11.70;65.80;;;;;;5042407;28;87138;-38
2022/10/15 06:38:00;;;;;;;;;;;11.70;65.80;;;;;;5042652;27;87296;-37
2022/10/15 06:40:26;;;;;;;;;;;11.70;65.90;;;;;;5042141;28;87983;-37
2022/10/15 06:42:51;;;;;;;;;;;11.70;65.90;;;;;;5046126;28;86312;-37
2022/10/15 06:45:17;;;;;;;;;;;11.70;65.90;;;;;;5042406;28;88151;-37
2022/10/15 06:47:42;;;;;;;;;;;11.70;65.90;;;;;;5042506;28;87055;-37
2022/10/15 06:50:08;;;;;;;;;;;11.70;65.90;;;;;;5041844;28;87840;-38
2022/10/15 06:52:34;;;;;;;;;;;11.70;65.90;;;;;;5043928;28;88085;-37
2022/10/15 06:54:59;;;;;;;;;;;11.70;65.90;;;;;;5046031;28;87100;-37
2022/10/15 06:57:26;;;;;;;;;;;11.70;65.90;;;;;;5045895;28;87524;-38
2022/10/15 06:59:51;;;;;;;;;;;11.70;65.90;;;;;;5045764;28;87082;-37
2022/10/15 07:02:18;;;;;;;;;;;11.70;66.00;;;;;;5046014;28;87100;-37
2022/10/15 07:04:44;;;;;;;;;;;11.70;66.00;;;;;;5048476;27;87382;-37
2022/10/15 07:07:09;;;;;;;;;;;11.70;66.10;;;;;;5046375;28;86359;-37
2022/10/15 07:09:35;;;;;;;;;;;11.70;66.20;;;;;;5045794;27;86966;-37
2022/10/15 07:12:01;;;;;;;;;;;11.70;66.10;;;;;;5045116;28;87007;-36
2022/10/15 07:14:26;;;;;;;;;;;11.70;66.10;;;;;;5045169;28;88006;-37
2022/10/15 07:16:52;;;;;;;;;;;11.70;66.40;;;;;;5045938;28;87527;-38
2022/10/15 07:19:17;;;;;;;;;;;11.70;66.10;;;;;;5045459;28;88287;-37
2022/10/15 07:21:43;;;;;;;;;;;11.70;66.10;;;;;;5045713;28;87131;-38
2022/10/15 07:24:08;;;;;;;;;;;11.80;66.10;;;;;;5047774;28;87379;-37
2022/10/15 07:26:34;;;;;;;;;;;11.80;66.10;;;;;;5045380;28;87128;-37
2022/10/15 07:29:00;;;;;;;;;;;11.80;66.20;;;;;;5045503;28;87437;-37
2022/10/15 07:31:25;;;;;;;;;;;11.80;66.30;;;;;;5045561;28;87318;-37
2022/10/15 07:33:51;;;;;;;;;;;11.70;66.50;;;;;;5045636;28;87110;-36
2022/10/15 07:36:16;;;;;;;;;;;11.80;66.50;;;;;;5045418;28;87451;-37
2022/10/15 07:38:42;;;;;;;;;;;11.80;66.50;;;;;;5044259;28;88230;-37
2022/10/15 07:41:08;;;;;;;;;;;11.80;66.60;;;;;;5045330;28;87083;-37
2022/10/15 07:43:35;;;;;;;;;;;11.70;66.60;;;;;;5045303;27;86978;-37
2022/10/15 07:46:01;;;;;;;;;;;11.80;66.60;;;;;;5047884;28;87480;-37
2022/10/15 07:48:26;;;;;;;;;;;11.80;66.60;;;;;;5045331;27;87314;-37
2022/10/15 07:50:55;;;;;;;;;;;11.80;66.80;;;;;;5044911;28;87962;-37
2022/10/15 07:53:21;;;;;;;;;;;11.80;66.70;;;;;;5045379;28;86880;-37
2022/10/15 07:55:46;;;;;;;;;;;11.80;66.60;;;;;;5045340;27;86895;-37
2022/10/15 07:58:12;;;;;;;;;;;11.80;66.80;;;;;;5044692;28;88145;-36
2022/10/15 08:00:37;;;;;;;;;;;11.80;67.20;;;;;;5045126;28;87171;-37
2022/10/15 08:03:03;;;;;;;;;;;11.80;67.10;;;;;;5044197;27;88352;-37
2022/10/15 08:05:28;;;;;;;;;;;11.80;67.00;;;;;;5044232;28;88217;-37
2022/10/15 08:07:54;;;;;;;;;;;11.70;67.20;;;;;;5048113;28;86782;-38
2022/10/15 08:10:19;;;;;;;;;;;11.80;67.40;;;;;;5044560;28;88180;-36
2022/10/15 08:12:45;;;;;;;;;;;11.80;67.00;;;;;;5044881;28;87058;-38
2022/10/15 08:15:10;;;;;;;;;;;11.80;67.30;;;;;;5044784;27;87355;-37
2022/10/15 08:17:36;;;;;;;;;;;11.80;67.40;;;;;;5044428;28;88129;-37
2022/10/15 08:20:02;;;;;;;;;;;11.80;67.30;;;;;;5045394;28;86348;-37
2022/10/15 08:22:27;;;;;;;;;;;11.80;67.40;;;;;;5044887;27;87017;-37
2022/10/15 08:24:52;;;;;;;;;;;11.80;67.40;;;;;;5044161;28;88217;-37
2022/10/15 08:27:18;;;;;;;;;;;11.80;67.90;;;;;;5043951;28;88014;-37
2022/10/15 08:29:44;;;;;;;;;;;11.80;67.70;;;;;;5047178;28;88332;-37
2022/10/15 08:32:11;;;;;;;;;;;11.80;67.60;;;;;;5044592;28;87060;-37
2022/10/15 08:34:36;;;;;;;;;;;11.80;67.80;;;;;;5044387;27;87568;-38
2022/10/15 08:37:02;;;;;;;;;;;11.90;67.70;;;;;;5044246;28;88036;-37
2022/10/15 08:39:27;;;;;;;;;;;11.80;67.60;;;;;;5044608;28;87070;-37
2022/10/15 08:41:54;;;;;;;;;;;11.80;67.70;;;;;;5044325;28;87226;-37
2022/10/15 08:44:30;;;;;;;;;;;11.80;67.70;;;;;;5044643;28;87194;-37
2022/10/15 08:47:09;;;;;;;;;;;11.80;68.10;;;;;;5044207;28;87067;-37
2022/10/15 08:49:42;;;;;;;;;;;11.90;67.80;;;;;;5044240;28;87339;-37
2022/10/15 08:52:17;;;;;;;;;;;11.80;67.80;;;;;;5045750;28;88831;-37
2022/10/15 08:54:42;;;;;;;;;;;11.90;67.70;;;;;;5044025;28;87864;-37
2022/10/15 08:57:15;;;;;;;;;;;11.90;67.80;;;;;;5043916;28;88017;-37
2022/10/15 09:00:01;;;;;;;;;;;11.90;67.80;;;;;;5044096;28;87114;-37
2022/10/15 09:02:34;;;;;;;;;;;12.00;67.90;;;;;;5043539;27;87426;-37
2022/10/15 09:05:38;;;;;;;;;;;12.00;67.80;;;;;;5043699;28;88059;-37
2022/10/15 09:08:11;;;;;;;;;;;12.00;67.60;;;;;;5001300;28;86948;-37
2022/10/15 09:10:39;;;;;;;;;;;12.00;67.90;;;;;;5002024;28;87478;-37
2022/10/15 09:13:13;;;;;;;;;;;12.00;67.70;;;;;;5022854;28;87523;-37
2022/10/15 09:15:50;;;;;;;;;;;12.10;67.50;;;;;;5045299;28;86941;-38
2022/10/15 09:18:26;;;;;;;;;;;12.00;67.70;;;;;;5042936;28;88906;-36
2022/10/15 09:20:52;;;;;;;;;;;12.00;67.80;;;;;;5043821;28;87002;-37
2022/10/15 09:23:26;;;;;;;;;;;12.00;67.70;;;;;;5043180;27;87856;-38
2022/10/15 09:26:14;;;;;;;;;;;12.00;68.00;;;;;;5043433;28;87695;-37
2022/10/15 09:28:40;;;;;;;;;;;12.00;68.10;;;;;;5043610;28;86949;-37
2022/10/15 09:31:07;;;;;;;;;;;12.10;67.70;;;;;;5043791;28;87386;-37
2022/10/15 09:33:42;;;;;;;;;;;12.10;67.80;;;;;;5043168;28;88015;-37
2022/10/15 09:36:26;;;;;;;;;;;12.00;67.70;;;;;;5046454;28;86341;-38
2022/10/15 09:38:57;;;;;;;;;;;12.10;67.60;;;;;;5042999;27;87908;-37
2022/10/15 09:41:25;;;;;;;;;;;12.10;68.00;;;;;;5043535;28;87127;-37
2022/10/15 09:43:51;;;;;;;;;;;12.10;68.00;;;;;;5042857;28;88112;-37
2022/10/15 09:46:17;;;;;;;;;;;12.20;68.00;;;;;;5043054;28;87769;-37
2022/10/15 09:48:46;;;;;;;;;;;12.20;68.00;;;;;;5043040;28;87179;-38
2022/10/15 09:51:23;;;;;;;;;;;12.20;68.00;;;;;;5043030;27;87315;-37
2022/10/15 09:53:52;;;;;;;;;;;12.30;67.80;;;;;;5042946;28;88000;-37
2022/10/15 09:56:18;;;;;;;;;;;12.30;68.10;;;;;;5043239;28;87022;-37
2022/10/15 09:58:54;;;;;;;;;;;12.30;68.10;;;;;;5045759;28;87646;-37
2022/10/15 10:01:21;;;;;;;;;;;12.30;68.10;;;;;;5043484;28;86281;-37
2022/10/15 10:04:08;;;;;;;;;;;12.20;68.10;;;;;;5043212;28;86925;-38
2022/10/15 10:06:41;;;;;;;;;;;12.20;68.20;;;;;;5042894;28;88188;-38
2022/10/15 10:09:13;;;;;;;;;;;12.20;68.30;;;;;;5042457;28;87813;-38
2022/10/15 10:11:52;;;;;;;;;;;12.30;68.20;;;;;;5042985;28;88444;-37
2022/10/15 10:14:22;;;;;;;;;;;12.30;68.10;;;;;;5042696;28;88003;-37
2022/10/15 10:17:12;;;;;;;;;;;12.40;68.00;;;;;;5042905;28;87158;-37
2022/10/15 10:19:38;;;;;;;;;;;12.40;67.90;;;;;;5043076;27;87399;-38
2022/10/15 10:22:21;;;;;;;;;;;12.40;68.10;;;;;;5045276;28;87701;-38
2022/10/15 10:24:47;;;;;;;;;;;12.30;68.20;;;;;;5042576;27;87034;-38
2022/10/15 10:27:20;;;;;;;;;;;12.40;68.10;;;;;;5042662;28;87338;-37
2022/10/15 10:29:50;;;;;;;;;;;12.40;68.00;;;;;;5042687;28;86972;-37
2022/10/15 10:32:21;;;;;;;;;;;12.40;68.00;;;;;;5042687;27;86954;-37
2022/10/15 10:34:46;;;;;;;;;;;12.40;67.80;;;;;;5041225;28;90080;-37
2022/10/15 10:37:12;;;;;;;;;;;12.50;68.00;;;;;;5042614;28;86955;-38
2022/10/15 10:39:38;;;;;;;;;;;12.50;68.00;;;;;;5042765;28;87703;-37
2022/10/15 10:42:21;;;;;;;;;;;12.50;68.00;;;;;;5042428;28;87969;-37
2022/10/15 10:44:47;;;;;;;;;;;12.50;67.90;;;;;;5045474;28;87090;-37
2022/10/15 10:47:12;;;;;;;;;;;12.50;67.90;;;;;;5041924;28;88498;-37
2022/10/15 10:49:40;;;;;;;;;;;12.50;67.90;;;;;;5042458;28;86810;-38
2022/10/15 10:52:05;;;;;;;;;;;12.50;67.80;;;;;;5042677;27;88396;-37
2022/10/15 10:54:31;;;;;;;;;;;12.60;68.00;;;;;;5042303;28;88092;-37
2022/10/15 10:56:58;;;;;;;;;;;12.60;68.00;;;;;;5042481;28;87852;-37
2022/10/15 10:59:29;;;;;;;;;;;12.60;67.90;;;;;;5041808;28;88021;-37
2022/10/15 11:01:58;;;;;;;;;;;12.60;67.90;;;;;;5041722;28;88002;-37
2022/10/15 11:04:33;;;;;;;;;;;12.60;67.90;;;;;;5042344;28;87639;-38
2022/10/15 11:07:16;;;;;;;;;;;12.60;67.90;;;;;;5044910;28;87522;-38
2022/10/15 11:09:47;;;;;;;;;;;12.70;67.90;;;;;;5042252;28;87105;-37
2022/10/15 11:12:36;;;;;;;;;;;12.70;68.00;;;;;;5042351;28;87015;-37
2022/10/15 11:15:04;;;;;;;;;;;12.70;67.80;;;;;;5035277;27;88259;-37
2022/10/15 11:17:41;;;;;;;;;;;12.70;67.90;;;;;;5042707;28;86470;-38
2022/10/15 11:20:19;;;;;;;;;;;12.70;67.90;;;;;;5042226;28;87135;-37
2022/10/15 11:22:53;;;;;;;;;;;12.70;67.90;;;;;;5041618;28;88175;-37
2022/10/15 11:25:19;;;;;;;;;;;12.70;67.80;;;;;;5041464;28;88338;-37
2022/10/15 11:27:47;;;;;;;;;;;12.80;67.70;;;;;;5044564;28;87501;-37
2022/10/15 11:30:37;;;;;;;;;;;12.80;67.60;;;;;;5042119;28;87095;-37
2022/10/15 11:33:02;;;;;;;;;;;12.80;67.70;;;;;;5042017;27;87255;-37
2022/10/15 11:35:48;;;;;;;;;;;12.80;67.60;;;;;;5041428;28;88113;-37
2022/10/15 11:38:14;;;;;;;;;;;12.80;67.70;;;;;;5040922;27;87150;-37
2022/10/15 11:41:00;;;;;;;;;;;12.80;67.60;;;;;;5045479;28;87381;-38
2022/10/15 11:43:31;;;;;;;;;;;12.80;67.60;;;;;;5037153;28;87382;-38
2022/10/15 11:45:57;;;;;;;;;;;12.80;67.60;;;;;;5045275;28;87134;-37
2022/10/15 11:48:52;;;;;;;;;;;12.80;67.30;;;;;;5045363;28;87459;-37
2022/10/15 11:51:27;;;;;;;;;;;12.90;68.10;;;;;;5008474;28;88984;-37
2022/10/15 11:54:13;;;;;;;;;;;12.90;67.40;;;;;;5045306;28;88305;-37
2022/10/15 11:56:40;;;;;;;;;;;12.90;67.20;;;;;;5044946;28;88233;-38
2022/10/15 11:59:08;;;;;;;;;;;12.90;67.50;;;;;;5044954;28;87066;-38
2022/10/15 12:02:03;;;;;;;;;;;12.90;67.20;;;;;;5045218;28;87416;-37
2022/10/15 12:04:39;;;;;;;;;;;12.90;67.20;;;;;;5034636;28;87880;-38
2022/10/15 12:07:06;;;;;;;;;;;12.90;67.20;;;;;;5045158;28;87049;-37
2022/10/15 12:09:36;;;;;;;;;;;13.00;67.00;;;;;;5045537;27;87610;-37
2022/10/15 12:12:05;;;;;;;;;;;13.00;66.90;;;;;;5044403;28;87949;-38
2022/10/15 12:14:30;;;;;;;;;;;13.00;67.00;;;;;;5047819;28;87057;-37
2022/10/15 12:17:05;;;;;;;;;;;13.00;67.10;;;;;;5043638;28;88978;-38
2022/10/15 12:19:44;;;;;;;;;;;13.00;66.90;;;;;;5044855;28;87076;-37
2022/10/15 12:22:10;;;;;;;;;;;13.00;67.00;;;;;;5044839;28;87548;-37
2022/10/15 12:24:49;;;;;;;;;;;13.10;67.00;;;;;;5044176;28;87841;-37
2022/10/15 12:27:33;;;;;;;;;;;13.00;66.50;;;;;;5044726;28;86909;-37
2022/10/15 12:29:58;;;;;;;;;;;13.10;66.90;;;;;;5044762;27;87024;-38
2022/10/15 12:32:27;;;;;;;;;;;13.10;66.70;;;;;;5044022;28;88040;-37
2022/10/15 12:34:56;;;;;;;;;;;13.10;66.70;;;;;;5044906;28;86407;-37
2022/10/15 12:37:23;;;;;;;;;;;13.10;66.40;;;;;;5046853;27;87763;-37
2022/10/15 12:40:02;;;;;;;;;;;13.10;66.60;;;;;;5044475;28;87077;-37
2022/10/15 12:42:36;;;;;;;;;;;13.10;66.60;;;;;;5043869;28;87891;-37
2022/10/15 12:45:04;;;;;;;;;;;13.10;66.10;;;;;;5044008;28;87213;-38
2022/10/15 12:47:49;;;;;;;;;;;13.20;66.40;;;;;;5044244;28;86987;-37
2022/10/15 12:50:24;;;;;;;;;;;13.10;66.20;;;;;;5044188;27;86861;-37
2022/10/15 12:52:57;;;;;;;;;;;13.20;66.70;;;;;;5043434;28;87813;-37
2022/10/15 12:55:25;;;;;;;;;;;13.20;66.60;;;;;;5043996;28;87135;-37
2022/10/15 12:57:52;;;;;;;;;;;13.20;66.10;;;;;;5044105;28;87564;-37
2022/10/15 13:00:30;;;;;;;;;;;13.20;66.50;;;;;;5047130;28;87343;-37
2022/10/15 13:03:01;;;;;;;;;;;13.20;66.70;;;;;;5043938;28;86998;-37
2022/10/15 13:05:31;;;;;;;;;;;13.20;66.50;;;;;;5043438;28;88081;-38
2022/10/15 13:07:58;;;;;;;;;;;13.20;66.40;;;;;;5043229;28;87874;-38
2022/10/15 13:10:26;;;;;;;;;;;13.30;66.70;;;;;;5043923;28;88209;-37
2022/10/15 13:12:56;;;;;;;;;;;13.20;66.20;;;;;;5043437;28;87958;-38
2022/10/15 13:15:23;;;;;;;;;;;13.30;66.10;;;;;;5043687;28;87093;-37
2022/10/15 13:17:49;;;;;;;;;;;13.30;66.20;;;;;;5043417;28;86983;-38
2022/10/15 13:20:34;;;;;;;;;;;13.30;65.80;;;;;;5043553;28;88003;-37
2022/10/15 13:23:16;;;;;;;;;;;13.30;66.10;;;;;;5045778;28;87040;-38
2022/10/15 13:25:42;;;;;;;;;;;13.30;66.10;;;;;;5043952;27;87420;-37
2022/10/15 13:28:25;;;;;;;;;;;13.30;66.00;;;;;;5043560;28;87129;-38
2022/10/15 13:30:51;;;;;;;;;;;13.30;66.00;;;;;;5043821;28;87446;-37
2022/10/15 13:33:16;;;;;;;;;;;13.30;65.70;;;;;;5042617;28;89286;-38
2022/10/15 13:35:42;;;;;;;;;;;13.40;66.10;;;;;;5043823;28;86958;-37
2022/10/15 13:38:17;;;;;;;;;;;13.40;65.70;;;;;;5043764;28;87122;-37
2022/10/15 13:40:46;;;;;;;;;;;13.30;66.00;;;;;;5043239;28;88342;-37
2022/10/15 13:43:37;;;;;;;;;;;13.40;66.10;;;;;;5046287;28;86953;-37
2022/10/15 13:46:03;;;;;;;;;;;13.40;66.10;;;;;;5040527;27;87316;-37
2022/10/15 13:48:30;;;;;;;;;;;13.40;65.50;;;;;;5043324;28;87084;-37
2022/10/15 13:51:00;;;;;;;;;;;13.40;65.70;;;;;;5043902;28;87330;-38
2022/10/15 13:53:26;;;;;;;;;;;13.50;66.00;;;;;;5042834;28;88426;-37
2022/10/15 13:55:53;;;;;;;;;;;13.50;66.00;;;;;;5043046;28;87543;-37
2022/10/15 13:58:29;;;;;;;;;;;13.50;65.90;;;;;;5042740;28;88252;-37
2022/10/15 14:01:14;;;;;;;;;;;13.50;65.70;;;;;;5042721;27;88232;-37
2022/10/15 14:03:50;;;;;;;;;;;13.50;65.90;;;;;;5042918;28;87232;-38
2022/10/15 14:06:20;;;;;;;;;;;13.50;65.70;;;;;;5045630;28;87464;-37
2022/10/15 14:08:47;;;;;;;;;;;13.50;65.50;;;;;;5042874;28;87085;-38
2022/10/15 14:11:13;;;;;;;;;;;13.50;65.70;;;;;;5043188;28;87448;-37
2022/10/15 14:13:48;;;;;;;;;;;13.50;65.70;;;;;;5042657;28;87977;-38
2022/10/15 14:16:23;;;;;;;;;;;13.50;66.00;;;;;;5043315;28;86644;-37
2022/10/15 14:18:50;;;;;;;;;;;13.50;65.70;;;;;;5042909;27;87271;-37
2022/10/15 14:21:17;;;;;;;;;;;13.50;65.60;;;;;;5042569;28;87977;-37
2022/10/15 14:23:44;;;;;;;;;;;13.50;65.90;;;;;;5041636;28;88062;-37
2022/10/15 14:26:10;;;;;;;;;;;13.50;65.80;;;;;;5042951;28;88512;-38
2022/10/15 14:28:36;;;;;;;;;;;13.60;65.60;;;;;;5045390;28;87969;-38